createdAt,value
2018-12-05T00:00:37.608Z,9.70
2018-12-05T00:03:06.141Z,9.47
2018-12-05T00:05:34.816Z,9.90
2018-12-05T00:08:03.334Z,9.50
2018-12-05T00:10:32.603Z,8.70
2018-12-05T00:13:01.051Z,9.10
2018-12-05T00:15:29.600Z,9.10
2018-12-05T00:17:58.079Z,8.47
2018-12-05T00:20:26.611Z,8.37
2018-12-05T00:22:55.159Z,8.47
2018-12-05T00:25:24.178Z,7.60
2018-12-05T00:27:52.717Z,9.07
2018-12-05T00:30:21.194Z,8.70
2018-12-05T00:32:49.662Z,8.97
2018-12-05T00:35:18.102Z,7.83
2018-12-05T00:37:46.514Z,7.67
2018-12-05T00:40:15.950Z,7.87
2018-12-05T00:42:44.487Z,8.27
2018-12-05T00:45:13.122Z,7.97
2018-12-05T00:47:42.271Z,7.03
2018-12-05T00:50:10.796Z,7.47
2018-12-05T00:52:39.430Z,8.67
2018-12-05T00:55:07.970Z,7.47
2018-12-05T00:57:37.411Z,7.80
2018-12-05T01:00:07.549Z,7.03
2018-12-05T01:02:36.041Z,8.50
2018-12-05T01:05:04.949Z,8.03
2018-12-05T01:07:33.957Z,7.10
2018-12-05T01:10:02.560Z,6.60
2018-12-05T01:12:31.039Z,7.20
2018-12-05T01:14:59.510Z,7.77
2018-12-05T01:17:27.977Z,7.33
2018-12-05T01:19:56.437Z,7.87
2018-12-05T01:22:25.064Z,7.33
2018-12-05T01:24:54.453Z,7.17
2018-12-05T01:27:23.038Z,7.33
2018-12-05T01:29:51.610Z,6.93
2018-12-05T01:32:20.236Z,7.13
2018-12-05T01:34:48.825Z,7.40
2018-12-05T01:37:17.318Z,6.50
2018-12-05T01:39:45.813Z,6.63
2018-12-05T01:42:14.282Z,7.77
2018-12-05T01:44:43.081Z,7.63
2018-12-05T01:47:11.715Z,6.67
2018-12-05T01:49:40.174Z,6.47
2018-12-05T01:52:08.692Z,6.80
2018-12-05T01:54:37.186Z,6.80
2018-12-05T01:57:06.232Z,6.63
2018-12-05T01:59:34.773Z,6.60
2018-12-05T02:02:04.288Z,6.63
2018-12-05T02:04:32.869Z,6.60
2018-12-05T02:07:01.915Z,6.73
2018-12-05T02:09:30.407Z,6.90
2018-12-05T02:11:58.888Z,7.83
2018-12-05T02:14:27.440Z,7.60
2018-12-05T02:16:55.922Z,6.40
2018-12-05T02:19:24.524Z,6.43
2018-12-05T02:21:53.090Z,6.37
2018-12-05T02:24:22.037Z,6.70
2018-12-05T02:26:50.464Z,6.87
2018-12-05T02:29:19.021Z,6.20
2018-12-05T02:31:47.561Z,6.90
2018-12-05T02:34:16.058Z,6.80
2018-12-05T02:36:44.562Z,6.40
2018-12-05T02:39:13.030Z,6.67
2018-12-05T02:41:42.210Z,7.57
2018-12-05T02:44:10.692Z,6.80
2018-12-05T02:46:39.352Z,6.70
2018-12-05T02:49:07.855Z,6.27
2018-12-05T02:51:36.357Z,6.17
2018-12-05T02:54:04.973Z,6.63
2018-12-05T02:56:33.542Z,8.07
2018-12-05T02:59:02.115Z,7.47
2018-12-05T03:01:30.692Z,7.20
2018-12-05T03:03:59.983Z,7.40
2018-12-05T03:06:28.912Z,7.43
2018-12-05T03:08:57.521Z,8.20
2018-12-05T03:11:26.089Z,8.20
2018-12-05T03:13:54.669Z,7.23
2018-12-05T03:16:23.239Z,7.53
2018-12-05T03:18:51.749Z,7.87
2018-12-05T03:21:20.367Z,7.37
2018-12-05T03:23:48.865Z,7.37
2018-12-05T03:26:17.342Z,7.20
2018-12-05T03:28:46.142Z,7.40
2018-12-05T03:31:15.304Z,7.40
2018-12-05T03:33:44.375Z,7.80
2018-12-05T03:36:12.952Z,7.37
2018-12-05T03:38:42.482Z,6.93
2018-12-05T03:41:11.016Z,7.73
2018-12-05T03:43:40.377Z,7.43
2018-12-05T03:46:08.929Z,6.73
2018-12-05T03:48:37.433Z,7.83
2018-12-05T03:51:06.079Z,8.10
2018-12-05T03:53:34.617Z,7.30
2018-12-05T03:56:03.189Z,7.53
2018-12-05T03:58:32.355Z,6.93
2018-12-05T04:01:00.926Z,7.27
2018-12-05T04:03:29.448Z,7.23
2018-12-05T04:05:57.977Z,7.17
2018-12-05T04:08:26.501Z,7.60
2018-12-05T04:10:55.005Z,7.73
2018-12-05T04:13:23.547Z,7.03
2018-12-05T04:15:52.006Z,6.87
2018-12-05T04:18:20.451Z,7.30
2018-12-05T04:20:48.959Z,6.70
2018-12-05T04:23:17.416Z,7.10
2018-12-05T04:25:45.952Z,7.43
2018-12-05T04:28:14.487Z,7.50
2018-12-05T04:30:42.958Z,7.50
2018-12-05T04:33:11.482Z,6.93
2018-12-05T04:35:40.968Z,7.03
2018-12-05T04:38:09.506Z,7.20
2018-12-05T04:40:38.657Z,7.03
2018-12-05T04:43:07.461Z,7.73
2018-12-05T04:45:35.894Z,7.73
2018-12-05T04:48:04.410Z,7.90
2018-12-05T04:50:34.457Z,7.20
2018-12-05T04:53:03.109Z,7.97
2018-12-05T04:55:31.829Z,8.07
2018-12-05T04:58:00.815Z,8.03
2018-12-05T05:00:29.391Z,8.40
2018-12-05T05:02:57.820Z,9.07
2018-12-05T05:05:26.418Z,7.93
2018-12-05T05:07:54.854Z,8.20
2018-12-05T05:10:23.331Z,8.53
2018-12-05T05:12:51.810Z,8.20
2018-12-05T05:15:21.018Z,8.40
2018-12-05T05:17:52.123Z,8.57
2018-12-05T05:20:20.638Z,8.33
2018-12-05T05:22:49.774Z,8.83
2018-12-05T05:25:18.347Z,8.13
2018-12-05T05:27:46.895Z,8.60
2018-12-05T05:30:15.348Z,9.60
2018-12-05T05:32:46.378Z,8.27
2018-12-05T05:35:14.928Z,8.77
2018-12-05T05:37:43.397Z,8.50
2018-12-05T05:40:12.001Z,9.03
2018-12-05T05:42:40.493Z,8.83
2018-12-05T05:45:09.056Z,8.63
2018-12-05T05:47:37.562Z,8.20
2018-12-05T05:50:06.562Z,9.43
2018-12-05T05:52:35.090Z,9.17
2018-12-05T05:55:04.819Z,9.37
2018-12-05T05:57:33.308Z,9.53
2018-12-05T06:00:01.766Z,9.77
2018-12-05T06:02:30.381Z,8.97
2018-12-05T06:04:58.886Z,9.63
2018-12-05T06:07:27.398Z,9.50
2018-12-05T06:09:55.872Z,9.53
2018-12-05T06:12:24.967Z,9.03
2018-12-05T06:14:53.486Z,9.40
2018-12-05T06:17:22.088Z,9.70
2018-12-05T06:19:50.562Z,9.27
2018-12-05T06:22:19.035Z,9.13
2018-12-05T06:24:47.500Z,9.97
2018-12-05T06:27:16.004Z,9.30
2018-12-05T06:29:44.728Z,9.90
2018-12-05T06:32:13.943Z,9.43
2018-12-05T06:34:43.883Z,10.20
2018-12-05T06:37:12.407Z,9.50
2018-12-05T06:39:40.845Z,10.97
2018-12-05T06:42:09.955Z,10.70
2018-12-05T06:44:38.530Z,10.30
2018-12-05T06:47:07.142Z,11.57
2018-12-05T06:49:36.356Z,9.70
2018-12-05T06:52:05.518Z,10.97
2018-12-05T06:54:34.063Z,10.93
2018-12-05T06:57:03.435Z,10.50
2018-12-05T06:59:31.925Z,10.30
2018-12-05T07:02:00.534Z,10.10
2018-12-05T07:04:29.746Z,9.93
2018-12-05T07:06:58.275Z,10.07
2018-12-05T07:09:26.888Z,9.93
2018-12-05T07:11:55.402Z,10.10
2018-12-05T07:14:27.469Z,11.13
2018-12-05T07:16:55.997Z,10.43
2018-12-05T07:19:25.381Z,10.90
2018-12-05T07:21:53.950Z,11.23
2018-12-05T07:24:22.442Z,9.83
2018-12-05T07:26:51.092Z,9.33
2018-12-05T07:29:19.664Z,11.17
2018-12-05T07:31:49.070Z,10.43
2018-12-05T07:34:17.800Z,10.30
2018-12-05T07:36:46.683Z,11.27
2018-12-05T07:39:15.120Z,10.27
2018-12-05T07:41:43.670Z,10.87
2018-12-05T07:44:12.168Z,10.60
2018-12-05T07:46:40.764Z,10.97
2018-12-05T07:49:09.293Z,10.37
2018-12-05T07:51:37.751Z,11.47
2018-12-05T07:54:06.287Z,11.37
2018-12-05T07:56:34.782Z,11.17
2018-12-05T07:59:03.242Z,11.27
2018-12-05T08:01:31.775Z,11.20
2018-12-05T08:04:00.236Z,11.90
2018-12-05T08:06:29.492Z,11.17
2018-12-05T08:08:57.985Z,11.00
2018-12-05T08:11:26.592Z,12.47
2018-12-05T08:13:55.110Z,12.63
2018-12-05T08:16:23.630Z,10.60
2018-12-05T08:18:52.757Z,12.10
2018-12-05T08:21:22.005Z,11.87
2018-12-05T08:23:51.269Z,11.93
2018-12-05T08:26:19.762Z,11.17
2018-12-05T08:28:48.256Z,11.47
2018-12-05T08:31:16.828Z,12.83
2018-12-05T08:33:45.363Z,11.07
2018-12-05T08:36:13.990Z,12.30
2018-12-05T08:38:42.718Z,12.03
2018-12-05T08:41:12.038Z,11.60
2018-12-05T08:43:40.749Z,12.27
2018-12-05T08:46:09.354Z,10.83
2018-12-05T08:48:37.917Z,13.33
2018-12-05T08:51:06.524Z,11.13
2018-12-05T08:53:35.073Z,10.43
2018-12-05T08:56:03.998Z,11.20
2018-12-05T08:58:32.646Z,11.70
2018-12-05T09:01:01.294Z,11.67
2018-12-05T09:03:30.054Z,10.80
2018-12-05T09:05:58.976Z,11.43
2018-12-05T09:08:27.633Z,10.27
2018-12-05T09:10:56.862Z,10.77
2018-12-05T09:13:25.717Z,11.60
2018-12-05T09:15:54.362Z,11.03
2018-12-05T09:18:22.998Z,10.13
2018-12-05T09:20:51.477Z,10.93
2018-12-05T09:23:20.918Z,10.40
2018-12-05T09:25:49.551Z,9.93
2018-12-05T09:28:18.097Z,11.33
2018-12-05T09:30:46.729Z,11.43
2018-12-05T09:33:15.265Z,10.40
2018-12-05T09:35:44.211Z,10.80
2018-12-05T09:38:12.745Z,10.70
2018-12-05T09:40:41.295Z,10.50
2018-12-05T09:43:09.881Z,10.80
2018-12-05T09:45:38.427Z,10.90
2018-12-05T09:48:11.633Z,10.37
2018-12-05T09:51:12.331Z,10.80
2018-12-05T09:58:27.505Z,10.77
2018-12-05T10:00:56.761Z,10.90
2018-12-05T10:03:25.462Z,10.43
2018-12-05T10:05:54.558Z,10.70
2018-12-05T10:08:23.111Z,9.67
2018-12-05T10:14:14.252Z,11.60
2018-12-05T10:19:31.438Z,9.57
2018-12-05T10:34:08.552Z,12.27
2018-12-05T10:36:54.132Z,12.53
2018-12-05T10:39:47.969Z,12.63
2018-12-05T10:42:17.270Z,12.33
2018-12-05T10:44:45.779Z,11.90
2018-12-05T10:47:14.358Z,12.43
2018-12-05T10:49:44.013Z,11.77
2018-12-05T10:52:12.491Z,11.57
2018-12-05T10:54:41.074Z,12.40
2018-12-05T10:57:09.563Z,11.47
2018-12-05T10:59:38.197Z,11.23
2018-12-05T11:02:11.801Z,12.00
2018-12-05T11:04:45.582Z,11.90
2018-12-05T11:07:19.346Z,11.70
2018-12-05T11:09:53.018Z,12.57
2018-12-05T11:12:26.614Z,12.47
2018-12-05T11:15:01.274Z,11.27
2018-12-05T11:17:35.124Z,11.63
2018-12-05T11:20:09.052Z,12.07
2018-12-05T11:22:43.618Z,11.57
2018-12-05T11:25:17.066Z,10.57
2018-12-05T11:27:45.869Z,10.40
2018-12-05T11:30:14.728Z,11.43
2018-12-05T11:32:43.280Z,11.50
2018-12-05T11:35:12.015Z,11.60
2018-12-05T11:37:40.754Z,11.77
2018-12-05T11:40:10.455Z,11.40
2018-12-05T11:42:39.035Z,11.97
2018-12-05T11:45:07.673Z,11.33
2018-12-05T11:47:36.191Z,11.20
2018-12-05T11:50:04.997Z,11.17
2018-12-05T11:52:33.542Z,10.80
2018-12-05T11:55:02.132Z,11.57
2018-12-05T11:57:33.041Z,12.37
2018-12-05T12:00:01.646Z,12.17
2018-12-05T12:02:30.086Z,12.50
2018-12-05T12:04:58.628Z,11.87
2018-12-05T12:07:27.158Z,11.70
2018-12-05T12:09:56.967Z,11.47
2018-12-05T12:12:30.883Z,11.93
2018-12-05T12:15:00.263Z,11.77
2018-12-05T12:17:29.662Z,13.43
2018-12-05T12:19:58.243Z,13.10
2018-12-05T12:22:27.830Z,12.83
2018-12-05T12:24:57.828Z,12.80
2018-12-05T12:27:26.571Z,13.20
2018-12-05T12:29:56.017Z,12.77
2018-12-05T12:32:24.710Z,13.00
2018-12-05T12:34:53.306Z,12.40
2018-12-05T12:37:22.032Z,12.70
2018-12-05T12:39:51.176Z,12.87
2018-12-05T12:42:20.573Z,13.23
2018-12-05T12:44:50.631Z,12.90
2018-12-05T12:47:19.307Z,13.27
2018-12-05T12:49:48.528Z,12.37
2018-12-05T12:52:17.715Z,12.20
2018-12-05T12:54:46.175Z,13.43
2018-12-05T12:57:14.652Z,13.00
2018-12-05T12:59:43.976Z,12.23
2018-12-05T13:02:13.455Z,13.07
2018-12-05T13:04:42.261Z,12.03
2018-12-05T13:07:10.988Z,11.90
2018-12-05T13:09:39.979Z,13.07
2018-12-05T13:12:18.654Z,12.30
2018-12-05T13:14:47.645Z,12.40
2018-12-05T13:17:18.353Z,11.87
2018-12-05T13:19:49.107Z,13.00
2018-12-05T13:22:17.706Z,13.00
2018-12-05T13:24:51.409Z,13.00
2018-12-05T13:27:22.802Z,13.13
2018-12-05T13:29:51.384Z,12.27
2018-12-05T13:32:20.284Z,12.53
2018-12-05T13:34:53.133Z,12.90
2018-12-05T13:37:25.591Z,13.13
2018-12-05T13:39:56.899Z,13.17
2018-12-05T13:42:28.551Z,14.10
2018-12-05T13:45:00.801Z,13.50
2018-12-05T13:47:31.999Z,13.40
2018-12-05T13:50:00.597Z,12.90
2018-12-05T13:52:32.445Z,13.70
2018-12-05T13:55:02.175Z,12.70
2018-12-05T13:57:32.355Z,13.60
2018-12-05T14:00:00.995Z,13.60
2018-12-05T14:02:32.845Z,13.33
2018-12-05T14:05:06.673Z,14.00
2018-12-05T14:07:35.302Z,14.50
2018-12-05T14:10:07.567Z,14.03
2018-12-05T14:12:40.865Z,13.70
2018-12-05T14:15:10.619Z,14.23
2018-12-05T14:17:39.151Z,14.77
2018-12-05T14:20:08.918Z,16.73
2018-12-05T14:22:37.384Z,18.47
2018-12-05T14:25:07.559Z,17.23
2018-12-05T14:27:36.790Z,15.80
2018-12-05T14:30:06.162Z,17.13
2018-12-05T14:32:35.313Z,15.47
2018-12-05T14:35:03.785Z,15.47
2018-12-05T14:37:32.365Z,15.87
2018-12-05T14:40:01.576Z,16.93
2018-12-05T14:42:30.087Z,16.27
2018-12-05T14:44:58.587Z,15.47
2018-12-05T14:47:27.123Z,16.03
2018-12-05T14:49:55.700Z,16.77
2018-12-05T14:52:24.230Z,16.50
2018-12-05T14:54:53.094Z,15.87
2018-12-05T14:57:22.199Z,15.20
2018-12-05T14:59:50.708Z,16.13
2018-12-05T15:02:19.336Z,14.93
2018-12-05T15:04:47.900Z,16.43
2018-12-05T15:07:16.453Z,16.30
2018-12-05T15:09:44.899Z,16.03
2018-12-05T15:12:13.373Z,16.20
2018-12-05T15:14:42.017Z,15.50
2018-12-05T15:17:11.133Z,16.97
2018-12-05T15:19:39.708Z,16.67
2018-12-05T15:22:08.813Z,15.67
2018-12-05T15:24:37.600Z,16.40
2018-12-05T15:27:06.888Z,16.87
2018-12-05T15:29:35.459Z,17.13
2018-12-05T15:32:04.676Z,16.70
2018-12-05T15:34:33.288Z,15.43
2018-12-05T15:37:01.937Z,17.10
2018-12-05T15:39:30.629Z,16.73
2018-12-05T15:41:59.204Z,16.67
2018-12-05T15:44:27.715Z,17.03
2018-12-05T15:46:56.293Z,17.53
2018-12-05T15:49:24.942Z,17.10
2018-12-05T15:51:53.463Z,16.87
2018-12-05T15:54:23.981Z,17.60
2018-12-05T15:56:52.830Z,17.30
2018-12-05T15:59:21.407Z,16.73
2018-12-05T16:01:50.092Z,18.10
2018-12-05T16:04:18.644Z,17.80
2018-12-05T16:06:48.250Z,18.20
2018-12-05T16:09:16.955Z,17.30
2018-12-05T16:11:46.051Z,17.40
2018-12-05T16:14:14.859Z,17.63
2018-12-05T16:16:43.338Z,18.17
2018-12-05T16:19:12.440Z,18.80
2018-12-05T16:21:42.035Z,17.07
2018-12-05T16:24:12.369Z,20.20
2018-12-05T16:26:41.234Z,19.63
2018-12-05T16:29:09.850Z,18.87
2018-12-05T16:31:38.346Z,18.23
2018-12-05T16:34:08.543Z,19.53
2018-12-05T16:36:37.151Z,18.60
2018-12-05T16:39:07.650Z,17.77
2018-12-05T16:41:36.165Z,18.50
2018-12-05T16:44:12.583Z,19.73
2018-12-05T16:46:35.995Z,19.17
2018-12-05T16:49:04.509Z,19.33
2018-12-05T16:51:33.291Z,19.07
2018-12-05T16:54:01.999Z,18.10
2018-12-05T16:56:32.518Z,18.67
2018-12-05T16:59:02.133Z,18.87
2018-12-05T17:01:33.120Z,19.43
2018-12-05T17:04:02.679Z,19.30
2018-12-05T17:06:31.659Z,19.80
2018-12-05T17:09:01.477Z,21.47
2018-12-05T17:11:31.685Z,19.50
2018-12-05T17:14:01.520Z,20.73
2018-12-05T17:16:30.103Z,22.07
2018-12-05T17:18:59.385Z,20.40
2018-12-05T17:21:28.396Z,20.97
2018-12-05T17:23:57.142Z,20.53
2018-12-05T17:26:25.746Z,19.00
2018-12-05T17:28:54.715Z,19.43
2018-12-05T17:31:23.728Z,20.63
2018-12-05T17:33:52.343Z,19.23
2018-12-05T17:36:21.276Z,19.77
2018-12-05T17:38:49.919Z,18.87
2018-12-05T17:41:18.482Z,19.57
2018-12-05T17:43:47.084Z,20.00
2018-12-05T17:46:15.732Z,19.13
2018-12-05T17:48:44.314Z,19.93
2018-12-05T17:51:14.425Z,18.43
2018-12-05T17:53:44.559Z,18.93
2018-12-05T17:56:13.344Z,18.57
2018-12-05T17:58:42.130Z,20.07
2018-12-05T18:01:10.732Z,20.27
2018-12-05T18:03:39.364Z,21.87
2018-12-05T18:06:07.984Z,19.10
2018-12-05T18:08:36.752Z,20.63
2018-12-05T18:11:05.790Z,21.23
2018-12-05T18:13:34.468Z,28.30
2018-12-05T18:16:03.102Z,26.10
2018-12-05T18:18:31.847Z,25.03
2018-12-05T18:21:00.643Z,25.60
2018-12-05T18:23:30.375Z,24.40
2018-12-05T18:25:59.436Z,27.40
2018-12-05T18:29:53.243Z,23.93
2018-12-05T18:32:22.246Z,24.00
2018-12-05T18:34:50.848Z,26.57
2018-12-05T18:37:19.464Z,31.37
2018-12-05T18:39:48.029Z,24.93
2018-12-05T18:42:16.697Z,22.80
2018-12-05T18:44:45.448Z,27.77
2018-12-05T18:47:14.459Z,32.53
2018-12-05T18:49:43.802Z,28.03
2018-12-05T18:52:13.635Z,25.80
2018-12-05T18:54:42.970Z,24.73
2018-12-05T18:57:11.526Z,25.10
2018-12-05T18:59:40.072Z,24.07
2018-12-05T19:02:09.533Z,28.40
2018-12-05T19:04:38.203Z,27.13
2018-12-05T19:07:08.022Z,25.80
2018-12-05T19:09:36.670Z,25.30
2018-12-05T19:12:05.501Z,24.23
2018-12-05T19:14:40.269Z,27.17
2018-12-05T19:17:10.161Z,28.80
2018-12-05T19:19:38.817Z,25.87
2018-12-05T19:22:07.889Z,25.33
2018-12-05T19:24:36.516Z,25.93
2018-12-05T19:27:05.310Z,23.17
2018-12-05T19:29:34.370Z,24.30
2018-12-05T19:32:02.862Z,23.07
2018-12-05T19:34:31.715Z,24.93
2018-12-05T19:37:00.228Z,26.10
2018-12-05T19:39:28.805Z,25.97
2018-12-05T19:41:57.363Z,26.23
2018-12-05T19:44:27.101Z,24.10
2018-12-05T19:46:55.855Z,24.37
2018-12-05T19:49:24.422Z,23.80
2018-12-05T19:51:53.020Z,22.97
2018-12-05T19:54:22.345Z,21.97
2018-12-05T19:56:55.283Z,24.10
2018-12-05T19:59:23.873Z,23.67
2018-12-05T20:01:53.059Z,22.50
2018-12-05T20:04:22.981Z,22.20
2018-12-05T20:06:51.851Z,23.90
2018-12-05T20:09:20.567Z,30.23
2018-12-05T20:11:49.142Z,26.03
2018-12-05T20:14:22.956Z,23.67
2018-12-05T20:16:51.673Z,22.97
2018-12-05T20:19:21.531Z,24.30
2018-12-05T20:21:50.159Z,24.03
2018-12-05T20:24:18.895Z,22.27
2018-12-05T20:26:48.146Z,23.90
2018-12-05T20:29:16.671Z,22.97
2018-12-05T20:31:45.926Z,22.53
2018-12-05T20:34:15.342Z,24.17
2018-12-05T20:36:44.022Z,23.13
2018-12-05T20:39:12.864Z,22.27
2018-12-05T20:41:42.018Z,23.40
2018-12-05T20:44:11.304Z,24.07
2018-12-05T20:46:40.007Z,25.10
2018-12-05T20:49:08.765Z,27.00
2018-12-05T20:51:38.286Z,26.57
2018-12-05T20:54:06.886Z,25.17
2018-12-05T20:56:35.513Z,26.63
2018-12-05T20:59:04.926Z,26.73
2018-12-05T21:01:33.624Z,24.20
2018-12-05T21:04:02.283Z,24.83
2018-12-05T21:06:30.876Z,25.43
2018-12-05T21:08:59.524Z,25.90
2018-12-05T21:11:28.196Z,24.87
2018-12-05T21:13:57.637Z,24.40
2018-12-05T21:16:26.419Z,25.00
2018-12-05T21:18:55.753Z,23.87
2018-12-05T21:21:24.534Z,24.53
2018-12-05T21:23:53.256Z,23.73
2018-12-05T21:26:21.876Z,23.10
2018-12-05T21:28:51.197Z,25.00
2018-12-05T21:31:21.011Z,24.17
2018-12-05T21:33:50.352Z,23.53
2018-12-05T21:36:19.135Z,24.80
2018-12-05T21:38:48.494Z,24.40
2018-12-05T21:41:18.251Z,23.67
2018-12-05T21:43:46.887Z,23.60
2018-12-05T21:46:16.043Z,23.10
2018-12-05T21:48:44.835Z,21.43
2018-12-05T21:51:13.598Z,21.17
2018-12-05T21:53:42.553Z,22.80
2018-12-05T21:56:11.207Z,23.13
2018-12-05T21:58:41.925Z,23.70
2018-12-05T22:01:10.473Z,22.33
2018-12-05T22:03:38.979Z,22.43
2018-12-05T22:06:07.503Z,24.30
2018-12-05T22:08:36.164Z,23.63
2018-12-05T22:11:04.687Z,24.43
2018-12-05T22:13:33.377Z,23.97
2018-12-05T22:16:02.196Z,22.27
2018-12-05T22:18:30.802Z,21.83
2018-12-05T22:20:59.331Z,23.27
2018-12-05T22:23:27.838Z,21.97
2018-12-05T22:25:56.348Z,22.60
2018-12-05T22:28:24.935Z,22.40
2018-12-05T22:30:54.652Z,23.30
2018-12-05T22:33:24.345Z,22.13
2018-12-05T22:35:52.905Z,22.83
2018-12-05T22:38:21.609Z,22.37
2018-12-05T22:40:50.196Z,21.23
2018-12-05T22:43:18.746Z,20.90
2018-12-05T22:45:47.269Z,20.83
2018-12-05T22:48:15.776Z,20.10
2018-12-05T22:50:44.314Z,20.00
2018-12-05T22:53:12.869Z,21.77
2018-12-05T22:55:41.392Z,21.47
2018-12-05T22:58:10.257Z,21.10
2018-12-05T23:00:41.980Z,22.17
2018-12-05T23:03:10.536Z,21.83
2018-12-05T23:05:39.041Z,20.83
2018-12-05T23:08:08.355Z,22.30
2018-12-05T23:10:36.878Z,21.17
2018-12-05T23:13:05.353Z,20.57
2018-12-05T23:15:33.957Z,18.70
2018-12-05T23:18:02.443Z,19.47
2018-12-05T23:20:30.914Z,19.57
2018-12-05T23:23:00.115Z,17.20
2018-12-05T23:25:28.591Z,18.27
2018-12-05T23:27:57.503Z,17.13
2018-12-05T23:30:26.066Z,17.47
2018-12-05T23:32:54.637Z,16.90
2018-12-05T23:35:23.144Z,16.53
2018-12-05T23:37:51.742Z,16.17
2018-12-05T23:40:20.234Z,16.20
2018-12-05T23:42:49.514Z,16.37
2018-12-05T23:45:18.482Z,15.80
2018-12-05T23:47:47.061Z,15.03
2018-12-05T23:50:15.598Z,16.77
2018-12-05T23:52:44.061Z,15.33
2018-12-05T23:55:12.635Z,15.10
2018-12-05T23:57:41.896Z,16.33
